Mustang, Nevada
Current Conditions -  °F | °C
As of 9:55 AM on Friday 19 Dec 2014 (Local Time) from KRNO Reporting Station
Overcast Overcast  
Wind Chill: 46°   Ceiling: 6000
Heat Index: 46°   Visibility: 10mi
Dew Point: 22°   Wind: 0mph
Humidity: 39%   Direction: NA
Pressure: 30.11"   Gusts: NA
Location:  39.5403°N, 119.672°W
Report Text: KRNO 191755Z 00000KT 10SM BKN060 BKN100 OVC220 08/M06 A3011 RMK AO2 SLP187 MTN TOPS OBSCD SW-W VCSH SW-W SH DSNT SW-NW T00781056 10078 21011 53016
Loading
Personal Weather Stations






























Interactive Weather Map New forecast layout! Learn more

10-Day Weather Forecast

Advertisements
Track Severe Weather on mobile